Time;durP1;ratioP1;P1;durP2;ratioP2;P2;SDS_P1;SDS_P2;PMS_P1;PMS_P2;Temp;Humidity;BMP_temperature;BMP_pressure;BME280_temperature;BME280_humidity;BME280_pressure;Samples;Min_cycle;Max_cycle;Signal;HPM_P1;HPM_P2
2023/06/15 00:01:49;;;;;;;9.43;3.80;;;17.20;99.90;;;;;;5074491;28;20071;-71
2023/06/15 00:04:17;;;;;;;7.23;3.43;;;17.10;99.90;;;;;;5074732;28;20082;-73
2023/06/15 00:06:43;;;;;;;6.93;3.37;;;17.10;99.90;;;;;;5074426;28;20049;-71
2023/06/15 00:09:08;;;;;;;5.97;3.53;;;17.10;99.90;;;;;;5074310;28;20101;-72
2023/06/15 00:11:34;;;;;;;9.33;3.37;;;17.10;99.90;;;;;;5073054;28;20045;-72
2023/06/15 00:14:00;;;;;;;6.73;3.00;;;17.00;99.90;;;;;;5074246;28;20045;-71
2023/06/15 00:16:31;;;;;;;6.43;3.20;;;17.00;99.90;;;;;;5074314;28;20457;-72
2023/06/15 00:19:02;;;;;;;10.60;3.00;;;16.90;99.90;;;;;;5074233;28;20045;-71
2023/06/15 00:21:33;;;;;;;6.67;3.13;;;17.00;99.90;;;;;;5074325;28;20094;-71
2023/06/15 00:23:59;;;;;;;7.53;3.63;;;16.90;99.90;;;;;;5074107;28;20542;-71
2023/06/15 00:26:26;;;;;;;5.03;2.80;;;16.90;99.90;;;;;;5074745;28;20365;-71
2023/06/15 00:28:52;;;;;;;8.70;3.67;;;16.90;99.90;;;;;;5074015;28;20060;-71
2023/06/15 00:31:19;;;;;;;6.47;3.27;;;16.90;99.90;;;;;;5073862;28;20053;-71
2023/06/15 00:33:45;;;;;;;6.27;3.17;;;16.90;99.90;;;;;;5073977;28;20497;-71
2023/06/15 00:36:12;;;;;;;7.07;3.67;;;16.90;99.90;;;;;;5074133;28;20061;-71
2023/06/15 00:38:38;;;;;;;7.37;3.40;;;16.90;99.90;;;;;;5055924;28;20135;-71
2023/06/15 00:41:04;;;;;;;6.37;3.47;;;16.90;99.90;;;;;;5072546;28;20102;-71
2023/06/15 00:43:30;;;;;;;5.97;2.83;;;16.80;99.90;;;;;;5073848;28;20060;-72
2023/06/15 00:45:56;;;;;;;8.10;3.17;;;16.90;99.90;;;;;;5073695;28;20451;-71
2023/06/15 00:48:21;;;;;;;7.07;3.37;;;16.80;99.90;;;;;;5072325;28;20129;-71
2023/06/15 00:50:47;;;;;;;8.10;3.17;;;16.80;99.90;;;;;;5073583;28;20101;-71
2023/06/15 00:53:14;;;;;;;9.07;3.83;;;16.70;99.90;;;;;;5073737;28;20048;-72
2023/06/15 00:55:41;;;;;;;6.10;2.87;;;16.70;99.90;;;;;;5073601;28;20089;-72
2023/06/15 00:58:07;;;;;;;5.20;2.73;;;16.70;99.90;;;;;;5072144;28;20056;-72
2023/06/15 01:00:36;;;;;;;8.07;3.03;;;16.70;99.90;;;;;;5073531;28;20052;-72
2023/06/15 01:03:04;;;;;;;10.67;3.43;;;16.70;99.90;;;;;;5073366;28;20404;-71
2023/06/15 01:05:34;;;;;;;6.50;3.13;;;16.70;99.90;;;;;;5073503;28;20106;-72
2023/06/15 01:08:04;;;;;;;4.70;2.40;;;16.60;99.90;;;;;;5073296;28;20044;-72
2023/06/15 01:10:31;;;;;;;8.83;3.77;;;16.60;99.90;;;;;;5073415;28;20079;-72
2023/06/15 01:12:59;;;;;;;6.50;3.30;;;16.60;99.90;;;;;;5073209;28;20053;-71
2023/06/15 01:15:25;;;;;;;6.97;3.70;;;16.60;99.90;;;;;;5072282;28;20037;-71
2023/06/15 01:17:57;;;;;;;6.50;3.20;;;16.60;99.90;;;;;;5073065;28;20055;-71
2023/06/15 01:20:38;;;;;;;11.00;3.70;;;16.60;99.90;;;;;;5073658;28;20040;-72
2023/06/15 01:23:22;;;;;;;12.20;3.70;;;16.60;99.90;;;;;;5073192;28;20044;-71
2023/06/15 01:25:53;;;;;;;6.83;3.50;;;16.60;99.90;;;;;;5071793;28;20052;-72
2023/06/15 01:28:20;;;;;;;9.83;4.00;;;16.50;99.90;;;;;;5073488;28;20053;-72
2023/06/15 01:30:54;;;;;;;9.77;3.77;;;16.50;99.90;;;;;;5073156;28;20049;-71
2023/06/15 01:33:21;;;;;;;7.40;3.60;;;16.50;99.90;;;;;;5072818;28;20484;-72
2023/06/15 01:35:47;;;;;;;8.07;4.40;;;16.50;99.90;;;;;;5072917;28;20041;-72
2023/06/15 01:38:13;;;;;;;8.20;3.90;;;16.50;99.90;;;;;;5071835;28;20178;-71
2023/06/15 01:40:47;;;;;;;8.70;3.90;;;16.50;99.90;;;;;;5072128;28;20041;-73
2023/06/15 01:43:15;;;;;;;9.53;3.87;;;16.40;99.90;;;;;;5072861;28;20041;-72
2023/06/15 01:45:43;;;;;;;7.47;3.17;;;16.40;99.90;;;;;;5072327;28;20489;-71
2023/06/15 01:48:10;;;;;;;7.27;3.60;;;16.40;99.90;;;;;;5072799;28;20088;-71
2023/06/15 01:50:37;;;;;;;8.90;4.47;;;16.40;99.90;;;;;;5073087;28;20762;-72
2023/06/15 01:53:03;;;;;;;10.43;4.20;;;16.40;99.90;;;;;;5072661;28;20352;-71
2023/06/15 01:55:29;;;;;;;8.23;4.07;;;16.40;99.90;;;;;;5072938;28;20044;-72
2023/06/15 01:57:55;;;;;;;6.53;3.33;;;16.40;99.90;;;;;;5072737;28;20701;-71
2023/06/15 02:00:23;;;;;;;6.67;3.80;;;16.50;99.90;;;;;;5075448;28;20052;-73
2023/06/15 02:02:49;;;;;;;7.50;3.80;;;16.40;99.90;;;;;;5077182;28;20283;-73
2023/06/15 02:05:14;;;;;;;10.17;5.10;;;16.40;99.90;;;;;;5076754;28;20455;-71
2023/06/15 02:07:40;;;;;;;8.10;4.10;;;16.30;99.90;;;;;;5059045;28;20056;-72
2023/06/15 02:10:07;;;;;;;10.87;3.97;;;16.30;99.90;;;;;;5076674;28;20049;-72
2023/06/15 02:12:33;;;;;;;6.87;4.00;;;16.30;99.90;;;;;;5076515;28;20413;-71
2023/06/15 02:15:02;;;;;;;8.53;4.23;;;16.30;99.90;;;;;;5076465;28;20041;-71
2023/06/15 02:17:33;;;;;;;7.27;4.43;;;16.20;99.90;;;;;;5075458;28;20406;-71
2023/06/15 02:19:59;;;;;;;8.30;3.73;;;16.20;99.90;;;;;;5059467;28;20278;-71
2023/06/15 02:22:25;;;;;;;6.13;4.20;;;16.10;99.90;;;;;;5076696;28;20094;-71
2023/06/15 02:24:51;;;;;;;14.33;4.57;;;16.10;99.90;;;;;;5075284;28;20056;-73
2023/06/15 02:27:17;;;;;;;8.70;4.60;;;16.10;99.90;;;;;;5076298;28;20305;-72
2023/06/15 02:29:42;;;;;;;8.43;4.33;;;16.10;99.90;;;;;;5075705;28;20044;-71
2023/06/15 02:32:11;;;;;;;7.60;4.53;;;16.20;99.90;;;;;;5075242;28;20088;-71
2023/06/15 02:34:37;;;;;;;12.17;4.73;;;16.10;99.90;;;;;;5059104;28;20052;-71
2023/06/15 02:37:03;;;;;;;10.03;4.00;;;16.10;99.90;;;;;;5075829;28;20044;-71
2023/06/15 02:39:29;;;;;;;11.53;5.20;;;16.00;99.90;;;;;;5076216;28;20048;-72
2023/06/15 02:41:54;;;;;;;11.07;4.33;;;16.00;99.90;;;;;;5076180;28;20285;-73
2023/06/15 02:44:21;;;;;;;8.00;5.07;;;16.00;99.90;;;;;;5074517;28;20508;-72
2023/06/15 02:46:47;;;;;;;7.70;4.10;;;16.00;99.90;;;;;;5074881;28;20135;-71
2023/06/15 02:49:12;;;;;;;12.93;4.60;;;16.00;99.90;;;;;;5075909;28;20218;-71
2023/06/15 02:51:39;;;;;;;8.93;4.37;;;16.10;99.90;;;;;;5075997;28;20040;-73
2023/06/15 02:54:08;;;;;;;7.50;3.90;;;16.00;99.90;;;;;;5075796;28;20088;-71
2023/06/15 02:56:35;;;;;;;10.47;4.00;;;16.00;99.90;;;;;;5075816;28;20307;-73
2023/06/15 02:59:01;;;;;;;9.47;4.67;;;16.00;99.90;;;;;;5075691;28;20278;-71
2023/06/15 03:01:38;;;;;;;10.13;3.57;;;16.00;99.90;;;;;;5074854;28;20286;-71
2023/06/15 03:04:09;;;;;;;9.33;4.70;;;16.00;99.90;;;;;;5075675;28;20056;-71
2023/06/15 03:06:36;;;;;;;10.20;3.93;;;15.90;99.90;;;;;;5076031;28;20270;-72
2023/06/15 03:09:03;;;;;;;9.20;4.20;;;15.90;99.90;;;;;;5057692;28;20452;-71
2023/06/15 03:11:29;;;;;;;8.67;4.40;;;15.90;99.90;;;;;;5075573;28;20336;-72
2023/06/15 03:13:55;;;;;;;7.73;4.37;;;15.80;99.90;;;;;;5075669;28;20739;-71
2023/06/15 03:16:24;;;;;;;15.53;4.80;;;15.90;99.90;;;;;;5075336;28;20036;-73
2023/06/15 03:18:52;;;;;;;8.33;4.43;;;15.90;99.90;;;;;;5075742;28;20044;-73
2023/06/15 03:21:20;;;;;;;10.60;5.10;;;15.90;99.90;;;;;;5074213;28;20307;-71
2023/06/15 03:23:45;;;;;;;9.20;4.20;;;15.90;99.90;;;;;;5075544;28;20286;-72
2023/06/15 03:26:11;;;;;;;8.90;4.13;;;15.80;99.90;;;;;;5075236;28;20271;-71
2023/06/15 03:28:38;;;;;;;8.90;4.20;;;15.80;99.90;;;;;;5075390;28;20044;-73
2023/06/15 03:31:04;;;;;;;10.03;5.40;;;15.80;99.90;;;;;;5075511;28;20051;-72
2023/06/15 03:33:30;;;;;;;9.60;4.63;;;15.80;99.90;;;;;;5074096;28;20673;-72
2023/06/15 03:35:57;;;;;;;7.27;3.97;;;15.80;99.90;;;;;;5075228;28;20303;-73
2023/06/15 03:38:23;;;;;;;7.43;4.13;;;15.80;99.90;;;;;;5074774;28;20294;-73
2023/06/15 03:40:49;;;;;;;7.63;4.17;;;15.80;99.90;;;;;;5075186;28;20279;-73
2023/06/15 03:43:15;;;;;;;7.80;4.20;;;15.80;99.90;;;;;;5074723;28;20127;-73
2023/06/15 03:45:41;;;;;;;11.50;3.97;;;15.80;99.90;;;;;;5074213;28;20774;-72
2023/06/15 03:48:07;;;;;;;8.67;4.47;;;15.80;99.90;;;;;;5074968;28;20286;-71
2023/06/15 03:50:33;;;;;;;8.67;4.83;;;15.90;99.90;;;;;;5075026;28;20052;-71
2023/06/15 03:53:00;;;;;;;11.23;4.20;;;15.90;99.90;;;;;;5074923;28;20279;-73
2023/06/15 03:55:26;;;;;;;9.40;4.17;;;15.90;99.90;;;;;;5074640;28;20352;-73
2023/06/15 03:57:51;;;;;;;7.33;4.57;;;15.90;99.90;;;;;;5074818;28;20283;-73
2023/06/15 04:00:18;;;;;;;10.50;4.07;;;15.90;99.90;;;;;;5074533;28;20044;-73
2023/06/15 04:02:44;;;;;;;9.93;4.70;;;15.90;99.90;;;;;;5075040;28;20462;-73
2023/06/15 04:05:10;;;;;;;6.67;4.10;;;16.00;99.90;;;;;;5074426;28;20286;-72
2023/06/15 04:07:36;;;;;;;13.90;5.30;;;16.00;99.90;;;;;;5073745;28;20600;-73
2023/06/15 04:10:04;;;;;;;9.13;4.60;;;16.00;99.90;;;;;;5073362;28;20052;-73
2023/06/15 04:12:30;;;;;;;9.63;4.73;;;16.00;99.90;;;;;;5074371;28;20623;-73
2023/06/15 04:14:55;;;;;;;9.23;5.30;;;16.10;99.90;;;;;;5073985;28;20303;-73
2023/06/15 04:17:21;;;;;;;8.33;4.50;;;16.10;99.90;;;;;;5074106;28;20052;-72
2023/06/15 04:19:47;;;;;;;7.13;4.17;;;16.20;99.90;;;;;;5073995;28;20574;-73
2023/06/15 04:22:12;;;;;;;8.47;3.83;;;16.20;99.90;;;;;;5073240;28;20046;-72
2023/06/15 04:24:38;;;;;;;6.47;4.27;;;16.20;99.90;;;;;;5074234;28;20090;-73
2023/06/15 04:27:05;;;;;;;8.53;4.03;;;16.30;99.90;;;;;;5074190;28;20404;-73
2023/06/15 04:29:31;;;;;;;7.63;4.50;;;16.30;99.90;;;;;;5072821;28;20532;-72
2023/06/15 04:31:57;;;;;;;8.57;4.57;;;16.40;99.90;;;;;;5073783;28;20770;-73
2023/06/15 04:34:24;;;;;;;9.93;4.40;;;16.50;99.90;;;;;;5073840;28;20350;-72
2023/06/15 04:36:50;;;;;;;9.43;4.23;;;16.50;99.90;;;;;;5072777;28;20282;-73
2023/06/15 04:39:16;;;;;;;7.67;4.37;;;16.60;99.90;;;;;;5073824;28;20627;-73
2023/06/15 04:41:42;;;;;;;8.30;4.37;;;16.70;99.90;;;;;;5073224;28;20352;-73
2023/06/15 04:44:08;;;;;;;7.37;3.90;;;16.90;99.90;;;;;;5073696;28;20291;-74
2023/06/15 04:46:39;;;;;;;8.80;4.00;;;17.00;99.90;;;;;;5073648;28;20052;-72
2023/06/15 04:49:06;;;;;;;9.57;4.20;;;17.10;99.90;;;;;;5073908;28;20307;-73
2023/06/15 04:51:32;;;;;;;8.50;4.33;;;17.30;99.90;;;;;;5072438;28;20119;-72
2023/06/15 04:53:58;;;;;;;7.03;3.90;;;17.40;99.90;;;;;;5073708;28;20120;-72
2023/06/15 04:56:24;;;;;;;10.37;4.33;;;17.50;99.90;;;;;;5072339;28;20406;-72
2023/06/15 04:58:50;;;;;;;9.70;4.20;;;17.70;99.90;;;;;;5073792;28;20040;-72
2023/06/15 05:01:16;;;;;;;8.50;4.40;;;17.80;99.90;;;;;;5073348;28;20131;-72
2023/06/15 05:03:42;;;;;;;9.93;5.10;;;17.90;99.90;;;;;;5073388;28;20140;-72
2023/06/15 05:06:08;;;;;;;9.20;4.07;;;18.10;99.90;;;;;;5072664;28;20059;-73
2023/06/15 05:08:35;;;;;;;11.90;4.00;;;18.20;99.90;;;;;;5073251;28;20044;-72
2023/06/15 05:11:01;;;;;;;8.47;3.97;;;18.30;99.90;;;;;;5072218;28;20127;-73
2023/06/15 05:13:28;;;;;;;11.87;4.27;;;18.40;99.90;;;;;;5073164;28;20048;-72
2023/06/15 05:15:54;;;;;;;8.37;4.00;;;18.50;99.90;;;;;;5072074;28;20511;-73
2023/06/15 05:18:19;;;;;;;5.13;3.40;;;18.50;99.90;;;;;;5073158;28;20048;-72
2023/06/15 05:20:45;;;;;;;8.13;4.23;;;18.60;99.90;;;;;;5073577;28;20044;-73
2023/06/15 05:23:11;;;;;;;9.40;4.00;;;18.80;99.90;;;;;;5073254;28;20063;-72
2023/06/15 05:25:37;;;;;;;10.50;4.20;;;18.90;99.90;;;;;;5073139;28;20493;-72
2023/06/15 05:28:03;;;;;;;7.43;3.90;;;19.10;99.90;;;;;;5073188;28;20040;-71
2023/06/15 05:30:29;;;;;;;12.97;4.03;;;19.20;99.90;;;;;;5072988;28;20044;-72
2023/06/15 05:32:55;;;;;;;8.73;3.80;;;19.40;99.90;;;;;;5073188;28;20048;-72
2023/06/15 05:35:21;;;;;;;8.77;4.13;;;19.50;99.90;;;;;;5072115;28;20063;-72
2023/06/15 05:37:47;;;;;;;7.90;4.03;;;19.60;99.90;;;;;;5073115;28;20482;-70
2023/06/15 05:40:13;;;;;;;8.93;3.90;;;19.70;99.90;;;;;;5071955;28;20053;-72
2023/06/15 05:42:39;;;;;;;8.03;3.70;;;19.80;99.90;;;;;;5072883;28;20054;-72
2023/06/15 05:45:05;;;;;;;7.70;3.83;;;20.00;99.90;;;;;;5073453;28;20052;-72
2023/06/15 05:47:32;;;;;;;10.93;4.60;;;20.20;99.90;;;;;;5072822;28;20041;-70
2023/06/15 05:49:57;;;;;;;7.17;4.50;;;20.60;99.90;;;;;;5073025;28;20056;-72
2023/06/15 05:52:23;;;;;;;8.10;4.27;;;21.70;99.90;;;;;;5072801;28;20045;-70
2023/06/15 05:54:49;;;;;;;8.97;4.23;;;22.90;99.90;;;;;;5073147;28;20112;-72
2023/06/15 05:57:15;;;;;;;8.43;5.00;;;23.90;96.60;;;;;;5072639;28;20055;-73
2023/06/15 05:59:41;;;;;;;8.13;4.33;;;24.80;91.20;;;;;;5072799;28;20071;-72
2023/06/15 06:02:08;;;;;;;6.97;4.50;;;25.30;80.00;;;;;;5072972;28;20078;-73
2023/06/15 06:04:34;;;;;;;8.37;4.50;;;26.00;77.60;;;;;;5071481;28;20048;-72
2023/06/15 06:07:00;;;;;;;10.07;4.30;;;26.60;68.70;;;;;;5055065;28;20045;-72
2023/06/15 06:09:26;;;;;;;7.13;4.23;;;27.00;65.00;;;;;;5071333;28;20040;-72
2023/06/15 06:11:52;;;;;;;13.23;4.10;;;27.20;61.60;;;;;;5071551;28;20056;-72
2023/06/15 06:14:18;;;;;;;7.97;4.10;;;27.40;60.00;;;;;;5071701;28;20081;-72
2023/06/15 06:16:44;;;;;;;8.33;3.47;;;28.10;57.90;;;;;;5071270;28;20045;-72
2023/06/15 06:19:09;;;;;;;7.70;4.00;;;28.50;55.60;;;;;;5072567;28;20512;-72
2023/06/15 06:21:35;;;;;;;6.83;4.00;;;29.10;51.70;;;;;;5054896;28;20048;-72
2023/06/15 06:24:02;;;;;;;7.77;3.87;;;29.50;52.70;;;;;;5072704;28;20059;-72
2023/06/15 06:26:28;;;;;;;5.67;3.43;;;30.20;51.10;;;;;;5071452;28;20071;-72
2023/06/15 06:28:54;;;;;;;8.47;3.13;;;30.40;48.10;;;;;;5072328;28;20500;-73
2023/06/15 06:31:20;;;;;;;6.87;3.57;;;30.50;47.50;;;;;;5072632;28;20051;-72
2023/06/15 06:33:46;;;;;;;7.03;3.50;;;30.40;47.20;;;;;;5071163;28;20044;-72
2023/06/15 06:36:12;;;;;;;11.18;3.40;;;31.00;46.40;;;;;;5071459;28;20105;-72
2023/06/15 06:38:37;;;;;;;7.88;3.75;;;31.50;45.90;;;;;;5071433;28;20393;-72
2023/06/15 06:41:03;;;;;;;6.68;3.72;;;31.70;44.20;;;;;;5072327;28;20066;-72
2023/06/15 06:43:29;;;;;;;8.75;3.40;;;32.20;41.90;;;;;;5070896;28;20053;-72
2023/06/15 06:45:55;;;;;;;9.60;3.47;;;32.30;43.00;;;;;;5074140;28;20049;-72
2023/06/15 06:48:21;;;;;;;8.60;3.90;;;32.30;42.70;;;;;;5075235;28;20088;-72
2023/06/15 06:50:47;;;;;;;7.20;3.60;;;32.60;41.90;;;;;;5075910;28;20080;-72
2023/06/15 06:53:12;;;;;;;9.07;3.72;;;32.80;40.90;;;;;;5076377;28;20044;-72
2023/06/15 06:55:38;;;;;;;8.00;3.53;;;32.80;40.50;;;;;;5074575;28;20444;-72
2023/06/15 06:58:04;;;;;;;8.10;3.22;;;33.30;40.30;;;;;;5075992;28;20059;-72
2023/06/15 07:00:30;;;;;;;10.15;3.10;;;33.50;39.30;;;;;;5075779;28;20055;-72
2023/06/15 07:02:57;;;;;;;6.38;3.20;;;33.40;38.90;;;;;;5075891;28;20087;-72
2023/06/15 07:05:23;;;;;;;6.32;2.92;;;33.70;38.90;;;;;;5075091;28;20382;-72
2023/06/15 07:07:48;;;;;;;7.03;3.58;;;33.80;37.90;;;;;;5075666;28;20067;-72
2023/06/15 07:10:14;;;;;;;9.55;3.45;;;33.90;37.70;;;;;;5075752;28;20056;-72
2023/06/15 07:12:40;;;;;;;6.05;3.17;;;34.00;37.90;;;;;;5075604;28;20545;-72
2023/06/15 07:15:06;;;;;;;6.75;3.65;;;34.30;37.50;;;;;;5075955;28;20048;-73
2023/06/15 07:17:32;;;;;;;11.50;3.95;;;34.30;36.90;;;;;;5074236;28;20044;-72
2023/06/15 07:19:58;;;;;;;5.75;3.28;;;34.40;36.50;;;;;;5058076;28;20048;-72
2023/06/15 07:22:24;;;;;;;7.55;3.25;;;34.30;35.30;;;;;;5074406;28;20036;-72
2023/06/15 07:24:50;;;;;;;5.88;3.00;;;34.30;35.90;;;;;;5075320;28;20475;-72
2023/06/15 07:27:17;;;;;;;6.68;3.47;;;34.30;35.50;;;;;;5074427;28;20055;-72
2023/06/15 07:29:42;;;;;;;6.25;3.00;;;34.40;35.90;;;;;;5075275;28;20062;-73
2023/06/15 07:32:08;;;;;;;7.82;3.70;;;34.80;35.10;;;;;;5075467;28;20048;-72
2023/06/15 07:34:34;;;;;;;5.13;3.10;;;34.90;34.80;;;;;;5075103;28;20369;-72
2023/06/15 07:37:00;;;;;;;4.43;2.67;;;34.90;34.40;;;;;;5075309;28;20048;-70
2023/06/15 07:39:26;;;;;;;5.75;3.05;;;35.10;34.60;;;;;;5075261;28;20049;-70
2023/06/15 07:41:51;;;;;;;6.32;2.83;;;34.80;34.00;;;;;;5074972;28;20052;-70
2023/06/15 07:44:17;;;;;;;6.40;3.00;;;35.00;34.30;;;;;;5073693;28;20088;-70
2023/06/15 07:46:43;;;;;;;7.03;3.40;;;34.90;33.10;;;;;;5074935;28;20123;-71
2023/06/15 07:49:09;;;;;;;6.75;3.75;;;34.90;33.30;;;;;;5074103;28;20048;-70
2023/06/15 07:51:35;;;;;;;5.47;3.05;;;35.00;33.50;;;;;;5073836;28;20048;-70
2023/06/15 07:54:01;;;;;;;5.28;2.95;;;35.10;33.20;;;;;;5074922;28;20045;-73
2023/06/15 07:56:27;;;;;;;6.45;3.17;;;34.60;33.00;;;;;;5074386;28;20044;-72
2023/06/15 07:58:53;;;;;;;6.90;3.00;;;34.70;33.40;;;;;;5074285;28;20057;-71
2023/06/15 08:01:19;;;;;;;6.20;3.30;;;34.60;33.40;;;;;;5057172;28;20044;-71
2023/06/15 08:03:45;;;;;;;5.22;2.97;;;34.00;33.30;;;;;;5074545;28;20060;-71
2023/06/15 08:06:11;;;;;;;6.13;2.60;;;34.20;33.40;;;;;;5074862;28;20048;-71
2023/06/15 08:08:37;;;;;;;5.65;3.03;;;34.30;33.50;;;;;;5074423;28;20084;-71
2023/06/15 08:11:05;;;;;;;7.60;3.10;;;34.70;33.60;;;;;;5057036;28;20131;-71
2023/06/15 08:13:31;;;;;;;9.02;2.60;;;35.00;32.90;;;;;;5074552;28;20044;-72
2023/06/15 08:15:58;;;;;;;5.35;3.25;;;35.20;32.60;;;;;;5074316;28;20045;-71
2023/06/15 08:18:23;;;;;;;7.25;3.15;;;35.70;32.00;;;;;;5074588;28;20048;-71
2023/06/15 08:20:50;;;;;;;6.53;3.20;;;35.80;32.40;;;;;;5073215;28;20056;-71
2023/06/15 08:23:16;;;;;;;7.25;3.17;;;35.80;31.20;;;;;;5074340;28;20052;-73
2023/06/15 08:25:42;;;;;;;5.63;3.15;;;35.80;31.50;;;;;;5072903;28;20086;-70
2023/06/15 08:28:08;;;;;;;5.25;2.67;;;35.60;31.40;;;;;;5056656;28;20040;-70
2023/06/15 08:30:33;;;;;;;4.18;2.78;;;35.80;31.60;;;;;;5056767;28;20114;-72
2023/06/15 08:32:59;;;;;;;5.60;3.10;;;35.50;31.10;;;;;;5073668;28;20509;-71
2023/06/15 08:35:25;;;;;;;7.32;2.95;;;35.50;31.60;;;;;;5073838;28;20036;-71
2023/06/15 08:37:51;;;;;;;5.45;3.25;;;35.20;31.90;;;;;;5073822;28;20123;-72
2023/06/15 08:40:19;;;;;;;8.25;3.13;;;34.60;32.10;;;;;;5074070;28;20040;-71
2023/06/15 08:42:46;;;;;;;9.35;3.00;;;34.30;32.70;;;;;;5073783;28;20074;-71
2023/06/15 08:45:12;;;;;;;5.93;3.08;;;34.10;32.20;;;;;;5074202;28;20049;-71
2023/06/15 08:47:39;;;;;;;6.18;2.70;;;33.90;33.30;;;;;;5072767;28;20051;-71
2023/06/15 08:50:06;;;;;;;5.70;2.80;;;33.80;33.20;;;;;;5056235;28;20041;-71
2023/06/15 08:52:36;;;;;;;6.60;2.92;;;33.60;34.10;;;;;;5072563;28;20059;-71
2023/06/15 08:55:03;;;;;;;5.43;2.63;;;33.30;34.00;;;;;;5073448;28;20052;-71
2023/06/15 08:57:31;;;;;;;6.40;2.90;;;32.30;33.50;;;;;;5073677;28;20052;-72
2023/06/15 08:59:57;;;;;;;6.32;3.42;;;31.60;34.20;;;;;;5073513;28;20048;-71
2023/06/15 09:02:24;;;;;;;5.20;2.83;;;30.90;34.70;;;;;;5073983;28;20070;-72
2023/06/15 09:04:51;;;;;;;8.52;2.78;;;30.30;35.00;;;;;;5073427;28;20036;-71
2023/06/15 09:07:21;;;;;;;6.55;2.85;;;30.30;35.70;;;;;;5073898;28;20127;-72
2023/06/15 09:10:15;;;;;;;5.20;2.88;;;30.20;35.70;;;;;;5072123;28;20048;-72
2023/06/15 09:12:42;;;;;;;11.43;3.22;;;29.80;36.00;;;;;;5072550;28;20075;-72
2023/06/15 09:15:08;;;;;;;5.78;2.53;;;29.40;36.10;;;;;;5072428;28;20123;-72
2023/06/15 09:17:38;;;;;;;8.13;2.55;;;29.30;36.30;;;;;;5073457;28;20056;-73
2023/06/15 09:20:05;;;;;;;6.22;2.83;;;29.20;36.30;;;;;;5072254;28;20080;-72
2023/06/15 09:22:31;;;;;;;5.38;2.67;;;28.60;36.20;;;;;;5072273;28;20055;-72
2023/06/15 09:24:57;;;;;;;4.80;2.88;;;28.50;36.70;;;;;;5073210;28;20048;-71
2023/06/15 09:27:23;;;;;;;7.75;2.50;;;28.40;36.90;;;;;;5073629;28;20050;-71
2023/06/15 09:30:07;;;;;;;6.45;3.60;;;28.20;36.90;;;;;;5072195;28;20458;-72
2023/06/15 09:32:32;;;;;;;7.43;2.63;;;27.90;37.10;;;;;;5073354;28;20052;-72
2023/06/15 09:34:59;;;;;;;4.50;2.60;;;27.80;37.00;;;;;;5072951;28;20534;-71
2023/06/15 09:37:28;;;;;;;5.32;2.35;;;27.80;37.70;;;;;;5073163;28;20040;-73
2023/06/15 09:39:54;;;;;;;4.88;2.28;;;27.80;38.20;;;;;;5055078;28;20052;-71
2023/06/15 09:42:26;;;;;;;6.32;2.50;;;28.00;38.20;;;;;;5073160;28;20086;-71
2023/06/15 09:44:54;;;;;;;6.70;3.75;;;28.10;38.30;;;;;;5072887;28;20090;-71
2023/06/15 09:47:20;;;;;;;5.28;2.75;;;28.00;37.90;;;;;;5073253;28;20127;-71
2023/06/15 09:49:48;;;;;;;4.93;2.40;;;27.90;37.90;;;;;;5072726;28;20128;-71
2023/06/15 09:52:14;;;;;;;5.28;2.70;;;27.90;38.20;;;;;;5071634;28;20131;-71
2023/06/15 09:54:40;;;;;;;6.88;2.67;;;27.70;38.20;;;;;;5072924;28;20087;-71
2023/06/15 09:57:07;;;;;;;4.95;2.67;;;27.40;38.10;;;;;;5072754;28;20052;-71
2023/06/15 09:59:33;;;;;;;4.63;2.40;;;27.30;38.50;;;;;;5073189;28;20102;-71
2023/06/15 10:02:00;;;;;;;5.95;2.65;;;27.10;38.70;;;;;;5072833;28;20392;-71
2023/06/15 10:04:30;;;;;;;5.25;2.83;;;26.90;38.80;;;;;;5054885;28;20100;-72
2023/06/15 10:07:03;;;;;;;5.45;2.53;;;27.00;39.70;;;;;;5071856;28;20105;-71
2023/06/15 10:09:35;;;;;;;5.45;2.42;;;27.00;39.00;;;;;;5073076;28;20400;-71
2023/06/15 10:12:15;;;;;;;7.97;2.78;;;27.00;38.90;;;;;;5072713;28;20532;-71
2023/06/15 10:14:48;;;;;;;6.93;2.42;;;27.00;39.40;;;;;;5072883;28;20104;-71
2023/06/15 10:17:16;;;;;;;6.10;2.78;;;27.00;39.40;;;;;;5071508;28;20053;-71
2023/06/15 10:19:45;;;;;;;7.30;2.88;;;27.00;39.00;;;;;;5071823;28;20053;-72
2023/06/15 10:22:17;;;;;;;6.47;2.67;;;26.90;38.80;;;;;;5076391;28;20055;-71
2023/06/15 10:24:45;;;;;;;4.70;2.55;;;26.90;38.90;;;;;;5076803;28;20052;-71
2023/06/15 10:27:11;;;;;;;5.13;2.90;;;26.80;39.10;;;;;;5076416;28;20056;-71
2023/06/15 10:29:50;;;;;;;5.50;2.50;;;26.90;39.00;;;;;;5076536;28;20044;-72
2023/06/15 10:32:24;;;;;;;5.45;2.75;;;27.00;39.50;;;;;;5076665;28;20044;-71
2023/06/15 10:34:57;;;;;;;5.95;2.60;;;27.00;39.20;;;;;;5076471;28;20131;-71
2023/06/15 10:37:46;;;;;;;5.30;2.50;;;26.70;39.00;;;;;;5076457;28;20049;-71
2023/06/15 10:40:38;;;;;;;4.93;2.30;;;26.70;39.40;;;;;;5076275;28;20056;-72
2023/06/15 10:43:03;;;;;;;6.60;2.37;;;26.70;39.40;;;;;;5058594;28;20053;-71
2023/06/15 10:45:32;;;;;;;4.60;2.67;;;26.70;39.30;;;;;;5075044;28;20044;-71
2023/06/15 10:47:59;;;;;;;4.70;2.53;;;26.70;38.90;;;;;;5076134;28;20052;-71
2023/06/15 10:50:37;;;;;;;5.30;2.77;;;26.70;39.00;;;;;;5076585;28;20049;-73
2023/06/15 10:53:03;;;;;;;4.53;2.37;;;26.60;38.90;;;;;;5076057;28;20131;-72
2023/06/15 10:55:29;;;;;;;6.17;2.77;;;26.50;38.70;;;;;;5074897;28;20154;-71
2023/06/15 10:58:17;;;;;;;8.67;3.17;;;26.40;39.10;;;;;;5075719;28;20506;-71
2023/06/15 11:01:07;;;;;;;5.00;2.67;;;26.30;39.30;;;;;;5076040;28;20078;-71
2023/06/15 11:03:34;;;;;;;6.87;2.60;;;26.30;39.30;;;;;;5076329;28;20080;-71
2023/06/15 11:06:04;;;;;;;4.47;2.43;;;26.30;39.40;;;;;;5074752;28;20484;-71
2023/06/15 11:08:31;;;;;;;5.30;2.63;;;26.40;38.90;;;;;;5076145;28;20044;-71
2023/06/15 11:10:57;;;;;;;6.13;2.83;;;26.20;38.90;;;;;;5075598;28;20127;-70
2023/06/15 11:13:26;;;;;;;6.13;2.63;;;26.10;39.20;;;;;;5075999;28;20084;-72
2023/06/15 11:16:07;;;;;;;6.47;3.00;;;26.10;39.30;;;;;;5075611;28;20137;-71
2023/06/15 11:18:33;;;;;;;4.47;2.43;;;26.10;40.20;;;;;;5075690;28;20077;-71
2023/06/15 11:20:59;;;;;;;6.27;2.37;;;26.20;39.40;;;;;;5074505;28;20052;-71
2023/06/15 11:23:29;;;;;;;5.80;2.90;;;26.20;39.50;;;;;;5074404;28;20040;-71
2023/06/15 11:25:55;;;;;;;5.50;2.70;;;26.10;39.30;;;;;;5075655;28;20496;-71
2023/06/15 11:28:24;;;;;;;6.03;2.67;;;26.00;39.40;;;;;;5075468;28;20048;-71
2023/06/15 11:30:53;;;;;;;5.07;2.80;;;26.10;39.60;;;;;;5074155;28;20055;-71
2023/06/15 11:33:27;;;;;;;6.17;2.70;;;26.00;39.70;;;;;;5075226;28;20443;-71
2023/06/15 11:35:54;;;;;;;5.47;2.70;;;26.10;39.90;;;;;;5074167;28;20044;-71
2023/06/15 11:38:26;;;;;;;4.60;2.77;;;26.10;39.80;;;;;;5075200;28;20162;-72
2023/06/15 11:41:07;;;;;;;4.77;2.30;;;26.10;39.50;;;;;;5075457;28;20123;-72
2023/06/15 11:43:48;;;;;;;6.37;2.40;;;26.20;39.20;;;;;;5075050;28;20053;-72
2023/06/15 11:46:15;;;;;;;8.03;3.50;;;26.10;39.30;;;;;;5074116;28;20094;-71
2023/06/15 11:48:46;;;;;;;5.30;2.83;;;26.10;39.20;;;;;;5074119;28;20071;-72
2023/06/15 11:51:14;;;;;;;5.20;2.87;;;26.20;39.30;;;;;;5075016;28;20052;-71
2023/06/15 11:53:41;;;;;;;4.77;2.50;;;26.20;39.40;;;;;;5074178;28;20051;-71
2023/06/15 11:56:09;;;;;;;4.83;2.47;;;26.20;39.30;;;;;;5073622;28;20075;-71
2023/06/15 11:58:35;;;;;;;7.70;2.53;;;26.20;38.60;;;;;;5073992;28;20049;-71
2023/06/15 12:01:02;;;;;;;4.20;2.17;;;26.10;38.70;;;;;;5074965;28;20040;-71
2023/06/15 12:03:31;;;;;;;8.93;2.83;;;26.10;39.30;;;;;;5074816;28;20492;-72
2023/06/15 12:05:58;;;;;;;4.83;2.40;;;26.20;39.70;;;;;;5073894;28;20060;-71
2023/06/15 12:08:28;;;;;;;5.23;2.70;;;26.20;38.20;;;;;;5073309;28;20098;-72
2023/06/15 12:10:55;;;;;;;5.10;2.70;;;26.10;38.10;;;;;;5074641;28;20041;-73
2023/06/15 12:13:23;;;;;;;5.33;2.20;;;26.10;38.00;;;;;;5074384;28;20360;-72
2023/06/15 12:15:50;;;;;;;6.27;2.70;;;26.10;37.70;;;;;;5074643;28;20123;-71
2023/06/15 12:18:17;;;;;;;5.30;2.47;;;26.10;37.90;;;;;;5074324;28;20048;-71
2023/06/15 12:20:44;;;;;;;7.03;2.80;;;26.10;38.30;;;;;;5073625;28;20056;-71
2023/06/15 12:23:10;;;;;;;6.60;3.03;;;26.10;38.80;;;;;;5074279;28;20052;-71
2023/06/15 12:25:46;;;;;;;5.70;3.00;;;26.10;38.90;;;;;;5073184;28;20385;-71
2023/06/15 12:28:17;;;;;;;5.03;2.40;;;26.10;38.70;;;;;;5072912;28;20052;-71
2023/06/15 12:30:47;;;;;;;5.70;2.30;;;26.10;39.20;;;;;;5074483;28;20052;-72
2023/06/15 12:33:34;;;;;;;4.13;2.10;;;26.10;39.10;;;;;;5073934;28;20048;-71
2023/06/15 12:36:02;;;;;;;4.10;2.40;;;26.20;39.00;;;;;;5073076;28;20395;-72
2023/06/15 12:38:29;;;;;;;4.70;2.57;;;26.20;39.10;;;;;;5073894;28;20393;-71
2023/06/15 12:40:56;;;;;;;6.23;2.80;;;26.20;39.00;;;;;;5074023;28;20515;-71
2023/06/15 12:43:25;;;;;;;7.20;2.33;;;26.20;39.20;;;;;;5072162;28;20106;-71
2023/06/15 12:45:52;;;;;;;4.40;2.50;;;26.10;39.10;;;;;;5074026;28;20045;-72
2023/06/15 12:48:19;;;;;;;6.20;2.80;;;26.00;39.10;;;;;;5072782;28;20488;-72